createdAt,value
2023-10-23T00:01:19.067Z,22.88
2023-10-23T00:03:51.892Z,22.88
2023-10-23T00:06:24.964Z,22.90
2023-10-23T00:08:57.356Z,22.88
2023-10-23T00:11:28.150Z,22.89
2023-10-23T00:13:58.571Z,22.87
2023-10-23T00:16:29.536Z,22.89
2023-10-23T00:19:02.084Z,22.88
2023-10-23T00:21:31.749Z,22.89
2023-10-23T00:24:15.675Z,22.88
2023-10-23T00:26:43.766Z,22.87
2023-10-23T00:29:14.173Z,22.89
2023-10-23T00:31:44.383Z,22.87
2023-10-23T00:34:18.573Z,22.87
2023-10-23T00:36:48.719Z,22.86
2023-10-23T00:39:21.192Z,22.86
2023-10-23T00:41:48.334Z,22.86
2023-10-23T00:44:19.503Z,22.86
2023-10-23T00:46:46.978Z,22.85
2023-10-23T00:49:22.933Z,22.84
2023-10-23T00:51:50.741Z,22.83
2023-10-23T00:54:21.602Z,22.85
2023-10-23T00:56:54.610Z,22.85
2023-10-23T00:59:25.573Z,22.86
2023-10-23T01:01:53.825Z,22.85
2023-10-23T01:04:27.786Z,22.85
2023-10-23T01:07:00.249Z,22.83
2023-10-23T01:09:30.592Z,22.85
2023-10-23T01:12:03.293Z,22.87
2023-10-23T01:14:36.018Z,22.89
2023-10-23T01:17:09.731Z,22.92
2023-10-23T01:19:39.615Z,22.94
2023-10-23T01:22:07.671Z,22.97
2023-10-23T01:24:39.962Z,23.00
2023-10-23T01:27:07.669Z,23.02
2023-10-23T01:29:49.441Z,23.03
2023-10-23T01:32:22.114Z,23.04
2023-10-23T01:35:01.780Z,23.05
2023-10-23T01:37:37.399Z,23.07
2023-10-23T01:40:10.423Z,23.08
2023-10-23T01:42:43.144Z,23.10
2023-10-23T01:45:16.021Z,23.11
2023-10-23T01:47:51.793Z,23.13
2023-10-23T01:50:25.819Z,23.13
2023-10-23T01:52:57.042Z,23.12
2023-10-23T01:55:26.662Z,23.09
2023-10-23T01:58:05.899Z,23.13
2023-10-23T02:00:41.237Z,23.12
2023-10-23T02:03:14.865Z,23.13
2023-10-23T02:05:49.698Z,23.17
2023-10-23T02:08:22.995Z,23.16
2023-10-23T02:10:50.668Z,23.11
2023-10-23T02:13:24.508Z,23.15
2023-10-23T02:15:56.941Z,23.12
2023-10-23T02:18:27.928Z,23.16
2023-10-23T02:20:57.894Z,23.13
2023-10-23T02:23:25.475Z,23.16
2023-10-23T02:25:58.791Z,23.16
2023-10-23T02:28:26.076Z,23.15
2023-10-23T02:31:01.408Z,23.18
2023-10-23T02:33:40.566Z,23.16
2023-10-23T02:36:16.154Z,23.11
2023-10-23T02:38:53.745Z,23.10
2023-10-23T02:41:29.658Z,23.04
2023-10-23T02:44:02.742Z,23.03
2023-10-23T02:46:42.036Z,22.99
2023-10-23T02:49:12.458Z,22.98
2023-10-23T02:51:45.215Z,22.93
2023-10-23T02:54:21.795Z,22.89
2023-10-23T02:56:54.210Z,22.88
2023-10-23T02:59:27.272Z,22.87
2023-10-23T03:02:06.714Z,22.85
2023-10-23T03:04:45.285Z,22.80
2023-10-23T03:07:15.045Z,22.78
2023-10-23T03:09:47.889Z,22.77
2023-10-23T03:12:21.731Z,22.79
2023-10-23T03:14:51.595Z,22.80
2023-10-23T03:17:22.797Z,22.78
2023-10-23T03:19:58.378Z,22.76
2023-10-23T03:22:37.044Z,22.76
2023-10-23T03:25:05.793Z,22.77
2023-10-23T03:27:37.841Z,22.74
2023-10-23T03:30:08.348Z,22.74
2023-10-23T03:32:40.854Z,22.76
2023-10-23T03:35:16.770Z,22.79
2023-10-23T03:37:53.166Z,22.80
2023-10-23T03:40:29.764Z,22.85
2023-10-23T03:42:57.006Z,22.85
2023-10-23T03:45:35.481Z,22.82
2023-10-23T03:48:08.893Z,22.78
2023-10-23T03:50:47.435Z,22.76
2023-10-23T03:53:19.852Z,22.75
2023-10-23T03:55:56.700Z,22.73
2023-10-23T03:58:29.916Z,22.71
2023-10-23T04:01:11.736Z,22.71
2023-10-23T04:03:47.815Z,22.67
2023-10-23T04:06:20.584Z,22.67
2023-10-23T04:08:56.865Z,22.67
2023-10-23T04:11:32.726Z,22.67
2023-10-23T04:14:06.296Z,22.67
2023-10-23T04:16:44.214Z,22.65
2023-10-23T04:19:17.949Z,22.67
2023-10-23T04:21:53.666Z,22.64
2023-10-23T04:24:27.066Z,22.66
2023-10-23T04:27:02.697Z,22.66
2023-10-23T04:29:33.583Z,22.63
2023-10-23T04:32:11.881Z,22.64
2023-10-23T04:34:47.808Z,22.64
2023-10-23T04:37:35.274Z,22.62
2023-10-23T04:40:07.916Z,22.63
2023-10-23T04:42:45.927Z,22.61
2023-10-23T04:45:19.282Z,22.63
2023-10-23T04:47:57.623Z,22.60
2023-10-23T04:50:31.119Z,22.63
2023-10-23T04:53:01.332Z,22.60
2023-10-23T04:55:43.873Z,22.60
2023-10-23T04:58:19.883Z,22.60
2023-10-23T05:00:55.729Z,22.61
2023-10-23T05:03:34.616Z,22.58
2023-10-23T05:06:13.616Z,22.56
2023-10-23T05:08:47.128Z,22.55
2023-10-23T05:11:25.771Z,22.56
2023-10-23T05:14:03.931Z,22.56
2023-10-23T05:16:39.742Z,22.56
2023-10-23T05:19:12.538Z,22.56
2023-10-23T05:21:48.461Z,22.54
2023-10-23T05:24:20.954Z,22.53
2023-10-23T05:26:51.204Z,22.51
2023-10-23T05:29:20.872Z,22.49
2023-10-23T05:32:00.799Z,22.53
2023-10-23T05:34:28.229Z,22.49
2023-10-23T05:37:07.314Z,22.55
2023-10-23T05:39:40.375Z,22.57
2023-10-23T05:42:08.113Z,22.54
2023-10-23T05:44:41.526Z,22.54
2023-10-23T05:47:11.937Z,22.54
2023-10-23T05:49:44.609Z,22.57
2023-10-23T05:52:19.609Z,22.53
2023-10-23T05:54:52.983Z,22.55
2023-10-23T05:57:26.901Z,22.57
2023-10-23T05:59:59.376Z,22.54
2023-10-23T06:02:38.227Z,22.57
2023-10-23T06:05:05.998Z,22.60
2023-10-23T06:07:36.886Z,22.60
2023-10-23T06:10:10.104Z,22.62
2023-10-23T06:12:40.598Z,22.70
2023-10-23T06:15:11.473Z,22.71
2023-10-23T06:17:42.917Z,22.78
2023-10-23T06:20:18.183Z,22.91
2023-10-23T06:22:49.367Z,23.08
2023-10-23T06:25:27.884Z,23.20
2023-10-23T06:27:59.148Z,23.25
2023-10-23T06:30:35.762Z,23.30
2023-10-23T06:33:09.407Z,23.31
2023-10-23T06:35:42.219Z,23.29
2023-10-23T06:38:13.803Z,23.26
2023-10-23T06:40:43.207Z,23.36
2023-10-23T06:43:17.063Z,23.35
2023-10-23T06:46:01.584Z,23.48
2023-10-23T06:48:37.567Z,23.44
2023-10-23T06:51:08.573Z,23.44
2023-10-23T06:53:44.342Z,23.44
2023-10-23T06:56:14.471Z,23.44
2023-10-23T06:58:44.718Z,23.47
2023-10-23T07:01:13.880Z,23.50
2023-10-23T07:03:41.668Z,23.52
2023-10-23T07:06:13.277Z,23.59
2023-10-23T07:08:50.366Z,23.61
2023-10-23T07:11:22.701Z,23.61
2023-10-23T07:13:55.835Z,23.57
2023-10-23T07:16:26.990Z,23.58
2023-10-23T07:18:58.326Z,23.56
2023-10-23T07:21:33.825Z,23.52
2023-10-23T07:24:05.249Z,23.52
2023-10-23T07:26:37.331Z,23.48
2023-10-23T07:29:10.707Z,23.45
2023-10-23T07:31:46.590Z,23.46
2023-10-23T07:34:17.136Z,23.45
2023-10-23T07:36:48.523Z,23.43
2023-10-23T07:39:19.645Z,23.43
2023-10-23T07:41:49.906Z,23.48
2023-10-23T07:44:17.932Z,23.47
2023-10-23T07:46:47.945Z,23.49
2023-10-23T07:49:18.800Z,23.47
2023-10-23T07:51:47.981Z,23.61
2023-10-23T07:54:24.767Z,23.78
2023-10-23T07:57:02.899Z,23.84
2023-10-23T07:59:34.238Z,23.84
2023-10-23T08:02:07.934Z,23.87
2023-10-23T08:04:41.620Z,23.86
2023-10-23T08:07:13.276Z,23.85
2023-10-23T08:09:44.883Z,23.86
2023-10-23T08:12:18.229Z,23.92
2023-10-23T08:14:49.004Z,23.95
2023-10-23T08:17:35.055Z,24.07
2023-10-23T08:20:08.610Z,24.03
2023-10-23T08:22:44.075Z,24.07
2023-10-23T08:25:23.168Z,24.16
2023-10-23T08:27:54.923Z,23.97
2023-10-23T08:30:31.212Z,23.94
2023-10-23T08:33:02.325Z,23.90
2023-10-23T08:35:41.258Z,23.88
2023-10-23T08:38:16.527Z,23.91
2023-10-23T08:40:48.234Z,23.93
2023-10-23T08:43:22.189Z,23.91
2023-10-23T08:46:00.496Z,23.88
2023-10-23T08:48:37.714Z,23.95
2023-10-23T08:51:18.547Z,23.98
2023-10-23T08:54:03.243Z,24.01
2023-10-23T08:56:53.002Z,23.90
2023-10-23T08:59:30.051Z,23.92
2023-10-23T09:02:01.822Z,23.90
2023-10-23T09:04:35.789Z,23.95
2023-10-23T09:07:12.775Z,24.00
2023-10-23T09:09:40.900Z,24.07
2023-10-23T09:12:30.069Z,24.05
2023-10-23T09:14:57.958Z,24.04
2023-10-23T09:17:34.081Z,24.01
2023-10-23T09:20:01.824Z,24.01
2023-10-23T09:22:34.764Z,23.98
2023-10-23T09:25:11.690Z,23.97
2023-10-23T09:27:42.427Z,24.02
2023-10-23T09:30:14.691Z,24.10
2023-10-23T09:32:48.664Z,24.20
2023-10-23T09:35:20.068Z,24.34
2023-10-23T09:37:57.451Z,24.41
2023-10-23T09:40:25.991Z,24.57
2023-10-23T09:43:02.900Z,24.60
2023-10-23T09:45:36.472Z,24.62
2023-10-23T09:48:04.487Z,24.71
2023-10-23T09:50:34.270Z,24.66
2023-10-23T09:53:08.397Z,24.66
2023-10-23T09:55:47.221Z,24.65
2023-10-23T09:58:20.865Z,24.57
2023-10-23T10:01:05.026Z,24.63
2023-10-23T10:03:44.100Z,24.66
2023-10-23T10:06:19.973Z,24.73
2023-10-23T10:08:56.423Z,24.67
2023-10-23T10:11:30.141Z,24.70
2023-10-23T10:14:06.530Z,24.71
2023-10-23T10:16:41.062Z,24.78
2023-10-23T10:19:13.528Z,24.79
2023-10-23T10:22:09.752Z,24.76
2023-10-23T10:24:42.449Z,24.80
2023-10-23T10:27:17.138Z,24.75
2023-10-23T10:29:53.083Z,24.87
2023-10-23T10:32:27.541Z,24.83
2023-10-23T10:34:57.817Z,24.85
2023-10-23T10:37:30.571Z,24.82
2023-10-23T10:39:58.269Z,24.81
2023-10-23T10:42:32.327Z,24.83
2023-10-23T10:45:02.672Z,24.83
2023-10-23T10:47:37.389Z,24.73
2023-10-23T10:50:16.072Z,24.66
2023-10-23T10:52:48.737Z,24.64
2023-10-23T10:55:21.906Z,24.58
2023-10-23T10:57:55.218Z,24.59
2023-10-23T11:00:26.584Z,24.57
2023-10-23T11:02:59.882Z,24.54
2023-10-23T11:05:36.777Z,24.56
2023-10-23T11:08:19.966Z,24.51
2023-10-23T11:10:47.829Z,24.43
2023-10-23T11:13:21.681Z,24.31
2023-10-23T11:15:59.874Z,24.30
2023-10-23T11:18:34.639Z,24.29
2023-10-23T11:21:12.198Z,24.25
2023-10-23T11:23:57.952Z,24.25
2023-10-23T11:26:34.798Z,24.19
2023-10-23T11:29:11.223Z,24.24
2023-10-23T11:31:42.117Z,24.27
2023-10-23T11:34:12.619Z,24.29
2023-10-23T11:36:43.625Z,24.30
2023-10-23T11:39:27.038Z,24.31
2023-10-23T11:42:03.754Z,24.37
2023-10-23T11:44:33.699Z,24.36
2023-10-23T11:47:07.175Z,24.40
2023-10-23T11:49:37.462Z,24.40
2023-10-23T11:52:08.868Z,24.35
2023-10-23T11:54:44.176Z,24.33
2023-10-23T11:57:14.902Z,24.41
2023-10-23T11:59:53.751Z,24.44
2023-10-23T12:02:24.827Z,24.51
2023-10-23T12:04:57.707Z,24.42
2023-10-23T12:07:28.817Z,24.39
2023-10-23T12:09:59.985Z,24.39
2023-10-23T12:12:35.679Z,24.33
2023-10-23T12:15:08.945Z,24.34
2023-10-23T12:17:41.379Z,24.34
2023-10-23T12:20:15.239Z,24.33
2023-10-23T12:22:50.351Z,24.33
2023-10-23T12:25:26.729Z,24.33
2023-10-23T12:27:57.316Z,24.30
2023-10-23T12:30:28.948Z,24.26
2023-10-23T12:33:17.649Z,24.28
2023-10-23T12:36:04.729Z,24.31
2023-10-23T12:38:34.798Z,24.29
2023-10-23T12:41:13.412Z,24.28
2023-10-23T12:43:52.685Z,24.28
2023-10-23T12:46:28.856Z,24.28
2023-10-23T12:49:05.899Z,24.32
2023-10-23T12:51:42.234Z,24.32
2023-10-23T12:54:19.015Z,24.32
2023-10-23T12:56:59.495Z,24.49
2023-10-23T12:59:44.924Z,24.54
2023-10-23T13:02:25.924Z,24.53
2023-10-23T13:05:01.744Z,24.55
2023-10-23T13:07:35.134Z,24.59
2023-10-23T13:10:07.128Z,24.64
2023-10-23T13:12:43.394Z,24.67
2023-10-23T13:15:12.809Z,24.72
2023-10-23T13:17:41.860Z,24.71
2023-10-23T13:20:54.008Z,24.72
2023-10-23T13:23:10.659Z,24.73
2023-10-23T13:25:40.524Z,24.74
2023-10-23T13:28:17.011Z,24.75
2023-10-23T13:30:50.816Z,24.68
2023-10-23T13:33:27.107Z,24.65
2023-10-23T13:36:01.900Z,24.66
2023-10-23T13:38:36.346Z,24.64
2023-10-23T13:41:06.842Z,24.61
2023-10-23T13:43:47.744Z,24.56
2023-10-23T13:46:22.095Z,24.55
2023-10-23T13:49:01.297Z,24.56
2023-10-23T13:51:35.331Z,24.61
2023-10-23T13:54:13.526Z,24.64
2023-10-23T13:56:50.567Z,24.68
2023-10-23T13:59:28.222Z,24.80
2023-10-23T14:02:02.615Z,24.88
2023-10-23T14:04:42.767Z,24.99
2023-10-23T14:07:17.094Z,25.00
2023-10-23T14:09:50.479Z,25.10
2023-10-23T14:12:28.813Z,25.10
2023-10-23T14:14:59.514Z,25.13
2023-10-23T14:17:40.144Z,25.07
2023-10-23T14:20:14.713Z,25.09
2023-10-23T14:22:48.296Z,25.10
2023-10-23T14:25:21.604Z,25.09
2023-10-23T14:27:55.675Z,25.01
2023-10-23T14:30:33.604Z,24.97
2023-10-23T14:33:07.823Z,24.91
2023-10-23T14:35:47.901Z,24.97
2023-10-23T14:38:28.007Z,24.90
2023-10-23T14:41:06.751Z,24.89
2023-10-23T14:43:41.932Z,24.92
2023-10-23T14:46:14.982Z,24.89
2023-10-23T14:48:42.884Z,24.96
2023-10-23T14:51:13.672Z,24.87
2023-10-23T14:53:42.660Z,24.92
2023-10-23T14:56:16.866Z,24.99
2023-10-23T14:58:45.724Z,24.93
2023-10-23T15:01:16.447Z,24.90
2023-10-23T15:03:47.460Z,24.95
2023-10-23T15:06:19.186Z,25.07
2023-10-23T15:08:50.260Z,25.08
2023-10-23T15:11:20.166Z,25.13
2023-10-23T15:13:48.192Z,25.14
2023-10-23T15:16:18.556Z,25.14
2023-10-23T15:18:46.798Z,25.16
2023-10-23T15:21:16.308Z,25.09
2023-10-23T15:23:49.722Z,25.08
2023-10-23T15:26:17.377Z,25.04
2023-10-23T15:28:45.171Z,24.98
2023-10-23T15:31:13.862Z,24.89
2023-10-23T15:33:41.721Z,24.83
2023-10-23T15:36:10.433Z,24.78
2023-10-23T15:38:40.143Z,24.78
2023-10-23T15:41:17.307Z,24.72
2023-10-23T15:43:50.749Z,24.66
2023-10-23T15:46:18.729Z,24.63
2023-10-23T15:48:49.545Z,24.66
2023-10-23T15:51:19.631Z,24.65
2023-10-23T15:53:51.971Z,24.60
2023-10-23T15:56:25.231Z,24.58
2023-10-23T15:58:55.892Z,24.53
2023-10-23T16:01:23.610Z,24.50
2023-10-23T16:03:56.128Z,24.52
2023-10-23T16:06:28.690Z,24.51
2023-10-23T16:09:09.335Z,24.48
2023-10-23T16:11:51.960Z,24.46
2023-10-23T16:14:25.849Z,24.46
2023-10-23T16:16:56.891Z,24.47
2023-10-23T16:19:30.038Z,24.40
2023-10-23T16:22:00.782Z,24.35
2023-10-23T16:24:28.428Z,24.34
2023-10-23T16:27:00.150Z,24.33
2023-10-23T16:29:27.943Z,24.29
2023-10-23T16:31:58.613Z,24.29
2023-10-23T16:34:28.560Z,24.29
2023-10-23T16:36:56.111Z,24.30
2023-10-23T16:39:31.674Z,24.33
2023-10-23T16:42:02.108Z,24.36
2023-10-23T16:44:44.388Z,24.33
2023-10-23T16:47:20.778Z,24.33
2023-10-23T16:49:49.186Z,24.28
2023-10-23T16:52:25.585Z,24.32
2023-10-23T16:54:56.033Z,24.28
2023-10-23T16:57:36.066Z,24.24
2023-10-23T17:00:23.175Z,24.16
2023-10-23T17:03:03.262Z,24.12
2023-10-23T17:05:45.759Z,24.10
2023-10-23T17:08:22.381Z,24.08
2023-10-23T17:11:09.516Z,24.08
2023-10-23T17:13:45.166Z,24.04
2023-10-23T17:16:21.166Z,24.04
2023-10-23T17:18:57.388Z,24.05
2023-10-23T17:21:36.587Z,24.02
2023-10-23T17:24:12.335Z,24.02
2023-10-23T17:26:49.081Z,24.01
2023-10-23T17:29:24.605Z,23.99
2023-10-23T17:32:04.057Z,24.02
2023-10-23T17:34:42.795Z,24.01
2023-10-23T17:37:18.306Z,24.04
2023-10-23T17:39:55.083Z,24.04
2023-10-23T17:42:23.763Z,23.99
2023-10-23T17:45:01.795Z,24.01
2023-10-23T17:47:43.294Z,23.99
2023-10-23T17:50:19.137Z,23.97
2023-10-23T17:52:52.027Z,23.96
2023-10-23T17:55:31.049Z,23.94
2023-10-23T17:58:07.375Z,23.92
2023-10-23T18:00:46.110Z,23.93
2023-10-23T18:03:25.218Z,23.94
2023-10-23T18:05:58.470Z,23.94
2023-10-23T18:08:35.320Z,23.92
2023-10-23T18:11:14.902Z,23.89
2023-10-23T18:13:47.848Z,23.88
2023-10-23T18:16:24.272Z,23.89
2023-10-23T18:19:04.262Z,23.88
2023-10-23T18:21:40.773Z,23.87
2023-10-23T18:24:22.934Z,23.87
2023-10-23T18:26:56.733Z,23.88
2023-10-23T18:29:44.341Z,23.89
2023-10-23T18:32:18.162Z,23.87
2023-10-23T18:34:58.546Z,23.91
2023-10-23T18:37:31.598Z,23.89
2023-10-23T18:40:06.119Z,23.91
2023-10-23T18:42:41.416Z,23.95
2023-10-23T18:45:19.514Z,23.95
2023-10-23T18:47:55.701Z,23.90
2023-10-23T18:50:31.696Z,23.92
2023-10-23T18:53:07.525Z,23.94
2023-10-23T18:55:41.124Z,23.93
2023-10-23T18:58:21.077Z,23.97
2023-10-23T19:00:53.877Z,23.95
2023-10-23T19:03:30.118Z,23.93
2023-10-23T19:06:06.172Z,23.93
2023-10-23T19:08:44.047Z,23.87
2023-10-23T19:11:23.168Z,23.86
2023-10-23T19:14:00.032Z,23.86
2023-10-23T19:16:38.786Z,23.86
2023-10-23T19:19:11.967Z,23.83
2023-10-23T19:21:47.057Z,23.80
2023-10-23T19:24:23.691Z,23.77
2023-10-23T19:26:56.802Z,23.77
2023-10-23T19:29:38.953Z,23.78
2023-10-23T19:32:15.944Z,23.79
2023-10-23T19:34:52.882Z,23.80
2023-10-23T19:37:27.033Z,23.79
2023-10-23T19:39:57.970Z,23.76
2023-10-23T19:42:40.311Z,23.78
2023-10-23T19:45:14.263Z,23.77
2023-10-23T19:47:51.496Z,23.77
2023-10-23T19:50:22.491Z,23.75
2023-10-23T19:53:04.648Z,23.75
2023-10-23T19:55:43.129Z,23.75
2023-10-23T19:58:24.184Z,23.71
2023-10-23T20:01:00.640Z,23.70
2023-10-23T20:03:36.814Z,23.70
2023-10-23T20:06:13.403Z,23.70
2023-10-23T20:08:46.425Z,23.68
2023-10-23T20:11:19.460Z,23.65
2023-10-23T20:13:58.216Z,23.68
2023-10-23T20:16:38.920Z,23.65
2023-10-23T20:19:18.169Z,23.67
2023-10-23T20:21:59.411Z,23.63
2023-10-23T20:24:35.526Z,23.61
2023-10-23T20:27:12.390Z,23.62
2023-10-23T20:29:51.325Z,23.63
2023-10-23T20:32:26.052Z,23.63
2023-10-23T20:34:59.206Z,23.65
2023-10-23T20:37:38.537Z,23.64
2023-10-23T20:40:10.509Z,23.64
2023-10-23T20:42:46.374Z,23.66
2023-10-23T20:45:19.556Z,23.63
2023-10-23T20:47:53.688Z,23.63
2023-10-23T20:50:30.182Z,23.62
2023-10-23T20:53:03.731Z,23.62
2023-10-23T20:55:40.869Z,23.58
2023-10-23T20:58:16.851Z,23.59
2023-10-23T21:00:57.694Z,23.62
2023-10-23T21:03:31.363Z,23.61
2023-10-23T21:06:08.663Z,23.60
2023-10-23T21:08:48.403Z,23.56
2023-10-23T21:11:24.346Z,23.56
2023-10-23T21:14:00.530Z,23.55
2023-10-23T21:16:40.099Z,23.55
2023-10-23T21:19:10.325Z,23.54
2023-10-23T21:21:50.218Z,23.57
2023-10-23T21:24:23.379Z,23.55
2023-10-23T21:26:59.071Z,23.57
2023-10-23T21:29:34.625Z,23.57
2023-10-23T21:32:12.509Z,23.53
2023-10-23T21:34:48.137Z,23.55
2023-10-23T21:37:18.589Z,23.56
2023-10-23T21:39:51.548Z,23.56
2023-10-23T21:42:30.041Z,23.56
2023-10-23T21:45:04.577Z,23.55
2023-10-23T21:47:46.271Z,23.58
2023-10-23T21:50:22.236Z,23.57
2023-10-23T21:52:49.935Z,23.57
2023-10-23T21:55:25.969Z,23.56
2023-10-23T21:58:05.858Z,23.55
2023-10-23T22:00:39.128Z,23.55
2023-10-23T22:03:19.406Z,23.54
2023-10-23T22:05:53.290Z,23.55
2023-10-23T22:08:29.303Z,23.53
2023-10-23T22:11:02.487Z,23.53
2023-10-23T22:13:39.219Z,23.51
2023-10-23T22:16:18.690Z,23.50
2023-10-23T22:18:55.126Z,23.52
2023-10-23T22:21:33.659Z,23.49
2023-10-23T22:24:07.554Z,23.51
2023-10-23T22:26:46.276Z,23.48
2023-10-23T22:29:22.378Z,23.48
2023-10-23T22:31:58.135Z,23.51
2023-10-23T22:34:38.082Z,23.51
2023-10-23T22:37:55.758Z,23.52
2023-10-23T22:40:17.192Z,23.51
2023-10-23T22:42:53.148Z,23.52
2023-10-23T22:45:31.727Z,23.55
2023-10-23T22:48:05.447Z,23.57
2023-10-23T22:50:39.424Z,23.53
2023-10-23T22:53:12.220Z,23.53
2023-10-23T22:55:42.911Z,23.51
2023-10-23T22:58:19.430Z,23.53
2023-10-23T23:00:54.895Z,23.55
2023-10-23T23:03:36.293Z,23.54
2023-10-23T23:06:13.854Z,23.52
2023-10-23T23:08:51.519Z,23.50
2023-10-23T23:11:29.460Z,23.49
2023-10-23T23:14:09.432Z,23.50
2023-10-23T23:16:49.366Z,23.51
2023-10-23T23:19:33.884Z,23.51
2023-10-23T23:22:09.856Z,23.52
2023-10-23T23:24:54.650Z,23.51
2023-10-23T23:27:28.146Z,23.48
2023-10-23T23:30:06.989Z,23.48
2023-10-23T23:32:43.998Z,23.47
2023-10-23T23:35:20.498Z,23.48
2023-10-23T23:37:55.725Z,23.46
2023-10-23T23:40:34.598Z,23.47
2023-10-23T23:43:11.002Z,23.46
2023-10-23T23:45:47.182Z,23.48
2023-10-23T23:48:20.431Z,23.48
2023-10-23T23:50:59.136Z,23.48
2023-10-23T23:53:34.891Z,23.47
2023-10-23T23:56:14.485Z,23.47
2023-10-23T23:58:56.052Z,23.46
